Time;durP1;ratioP1;P1;durP2;ratioP2;P2;SDS_P1;SDS_P2;PMS_P1;PMS_P2;Temp;Humidity;BMP_temperature;BMP_pressure;BME280_temperature;BME280_humidity;BME280_pressure;Samples;Min_cycle;Max_cycle;Signal;HPM_P1;HPM_P2
2022/11/19 00:00:53;;;;;;;;;;;;;;;;;;10581602;28;19923;-66
2022/11/19 00:05:55;;;;;;;;;;;;;;;;;;10583738;28;19927;-66
2022/11/19 00:10:57;;;;;;;;;;;;;;;;;;10584387;28;19924;-66
2022/11/19 00:15:59;;;;;;;;;;;;;;;;;;10584069;28;19928;-66
2022/11/19 00:21:01;;;;;;;;;;;;;;;;;;10581733;28;20371;-67
2022/11/19 00:26:03;;;;;;;;;;;;;;;;;;10583819;28;19931;-66
2022/11/19 00:31:05;;;;;;;;;;;;;;;;;;10582293;28;19969;-66
2022/11/19 00:36:07;;;;;;;;;;;;;;;;;;10582715;28;20394;-66
2022/11/19 00:41:10;;;;;;;;;;;;;;;;;;10582531;28;19928;-66
2022/11/19 00:46:12;;;;;;;;;;;;;;;;;;10583142;28;19928;-67
2022/11/19 00:51:14;;;;;;;;;;;;;;;;;;10581631;28;20362;-66
2022/11/19 00:56:16;;;;;;;;;;;;;;;;;;10582016;28;19928;-66
2022/11/19 01:01:18;;;;;;;;;;;;;;;;;;10580676;28;19924;-66
2022/11/19 01:06:20;;;;;;;;;;;;;;;;;;10581897;28;19928;-67
2022/11/19 01:11:22;;;;;;;;;;;;;;;;;;10581978;28;19924;-66
2022/11/19 01:16:24;;;;;;;;;;;;;;;;;;10583020;28;19924;-66
2022/11/19 01:21:26;;;;;;;;;;;;;;;;;;10579493;28;19931;-66
2022/11/19 01:26:28;;;;;;;;;;;;;;;;;;10581578;28;19924;-66
2022/11/19 01:31:30;;;;;;;;;;;;;;;;;;10581582;28;19932;-66
2022/11/19 01:36:32;;;;;;;;;;;;;;;;;;10581551;28;20267;-66
2022/11/19 01:41:34;;;;;;;;;;;;;;;;;;10578336;28;19969;-66
2022/11/19 01:46:36;;;;;;;;;;;;;;;;;;10582078;28;19928;-66
2022/11/19 01:51:39;;;;;;;;;;;;;;;;;;10580012;28;19931;-66
2022/11/19 01:56:41;;;;;;;;;;;;;;;;;;10580435;28;19953;-66
2022/11/19 02:01:43;;;;;;;;;;;;;;;;;;10579494;28;19923;-66
2022/11/19 02:06:45;;;;;;;;;;;;;;;;;;10588705;28;19963;-66
2022/11/19 02:11:47;;;;;;;;;;;;;;;;;;10588623;28;19976;-66
2022/11/19 02:16:49;;;;;;;;;;;;;;;;;;10570698;28;20436;-66
2022/11/19 02:21:51;;;;;;;;;;;;;;;;;;10584599;28;19931;-67
2022/11/19 02:26:53;;;;;;;;;;;;;;;;;;10587950;28;20371;-66
2022/11/19 02:31:55;;;;;;;;;;;;;;;;;;10588383;28;19923;-66
2022/11/19 02:36:57;;;;;;;;;;;;;;;;;;10585882;28;19923;-66
2022/11/19 02:41:59;;;;;;;;;;;;;;;;;;10567981;28;19977;-66
2022/11/19 02:47:01;;;;;;;;;;;;;;;;;;10587557;28;19928;-66
2022/11/19 02:52:03;;;;;;;;;;;;;;;;;;10586519;28;19931;-66
2022/11/19 02:57:05;;;;;;;;;;;;;;;;;;10587373;28;19923;-66
2022/11/19 03:07:28;;;;;;;;;;;;;;;;;;10587057;28;19924;-66
2022/11/19 03:12:30;;;;;;;;;;;;;;;;;;10585032;28;19989;-66
2022/11/19 03:17:32;;;;;;;;;;;;;;;;;;10584507;28;19928;-66
2022/11/19 03:22:34;;;;;;;;;;;;;;;;;;10584918;28;20415;-66
2022/11/19 03:27:37;;;;;;;;;;;;;;;;;;10585573;28;19931;-67
2022/11/19 03:32:39;;;;;;;;;;;;;;;;;;10584507;28;19923;-67
2022/11/19 03:37:41;;;;;;;;;;;;;;;;;;10585136;28;19924;-66
2022/11/19 03:42:43;;;;;;;;;;;;;;;;;;10584988;28;19928;-66
2022/11/19 03:47:45;;;;;;;;;;;;;;;;;;10583939;28;19923;-66
2022/11/19 03:52:47;;;;;;;;;;;;;;;;;;10584351;28;19924;-66
2022/11/19 03:57:49;;;;;;;;;;;;;;;;;;10584151;28;19973;-66
2022/11/19 04:02:51;;;;;;;;;;;;;;;;;;10583625;28;19928;-66
2022/11/19 04:07:53;;;;;;;;;;;;;;;;;;10584331;28;20043;-65
2022/11/19 04:12:55;;;;;;;;;;;;;;;;;;10583622;28;20376;-66
2022/11/19 04:17:57;;;;;;;;;;;;;;;;;;10580987;28;19924;-66
2022/11/19 04:22:59;;;;;;;;;;;;;;;;;;10583317;28;20386;-66
2022/11/19 04:28:01;;;;;;;;;;;;;;;;;;10582404;28;19928;-66
2022/11/19 04:33:03;;;;;;;;;;;;;;;;;;10582773;28;19981;-66
2022/11/19 04:38:05;;;;;;;;;;;;;;;;;;10580840;28;19957;-66
2022/11/19 04:43:07;;;;;;;;;;;;;;;;;;10583259;28;19923;-66
2022/11/19 04:48:10;;;;;;;;;;;;;;;;;;10582527;28;19931;-66
2022/11/19 04:53:12;;;;;;;;;;;;;;;;;;10582968;28;19970;-66
2022/11/19 04:58:14;;;;;;;;;;;;;;;;;;10580865;28;19924;-66
2022/11/19 05:03:16;;;;;;;;;;;;;;;;;;10582800;28;19924;-65
2022/11/19 05:08:18;;;;;;;;;;;;;;;;;;10582080;28;19924;-66
2022/11/19 05:13:20;;;;;;;;;;;;;;;;;;10581624;28;19924;-66
2022/11/19 05:18:22;;;;;;;;;;;;;;;;;;10579724;28;19973;-66
2022/11/19 05:23:24;;;;;;;;;;;;;;;;;;10581966;28;19924;-66
2022/11/19 05:28:26;;;;;;;;;;;;;;;;;;10582325;28;19973;-65
2022/11/19 05:33:39;;;;;;;;;;;;;;;;;;10579882;28;20386;-66
2022/11/19 05:38:41;;;;;;;;;;;;;;;;;;10584947;28;19928;-66
2022/11/19 05:43:43;;;;;;;;;;;;;;;;;;10588515;28;20314;-66
2022/11/19 05:48:45;;;;;;;;;;;;;;;;;;10588891;28;19928;-65
2022/11/19 05:53:47;;;;;;;;;;;;;;;;;;10588913;28;19923;-66
2022/11/19 05:58:49;;;;;;;;;;;;;;;;;;10589579;28;19924;-66
2022/11/19 06:03:51;;;;;;;;;;;;;;;;;;10589064;28;19923;-65
2022/11/19 06:08:53;;;;;;;;;;;;;;;;;;10588711;28;20386;-65
2022/11/19 06:13:55;;;;;;;;;;;;;;;;;;10588513;28;19927;-65
2022/11/19 06:18:57;;;;;;;;;;;;;;;;;;10586851;28;19927;-66
2022/11/19 06:23:59;;;;;;;;;;;;;;;;;;10588779;28;19923;-66
2022/11/19 06:29:01;;;;;;;;;;;;;;;;;;10588416;28;20362;-65
2022/11/19 06:34:04;;;;;;;;;;;;;;;;;;10586394;28;19935;-66
2022/11/19 06:39:06;;;;;;;;;;;;;;;;;;10586289;28;19931;-65
2022/11/19 06:44:08;;;;;;;;;;;;;;;;;;10587236;28;19924;-66
2022/11/19 06:49:10;;;;;;;;;;;;;;;;;;10585712;28;20000;-66
2022/11/19 06:54:16;;;;;;;;;;;;;;;;;;10588122;28;19923;-66
2022/11/19 06:59:18;;;;;;;;;;;;;;;;;;10582188;28;19931;-65
2022/11/19 07:04:20;;;;;;;;;;;;;;;;;;10585833;28;20014;-66
2022/11/19 07:09:22;;;;;;;;;;;;;;;;;;10587249;28;19973;-66
2022/11/19 07:14:25;;;;;;;;;;;;;;;;;;10585269;28;19924;-65
2022/11/19 07:19:27;;;;;;;;;;;;;;;;;;10583171;28;20031;-66
2022/11/19 07:24:29;;;;;;;;;;;;;;;;;;10586375;28;19969;-66
2022/11/19 07:29:31;;;;;;;;;;;;;;;;;;10585543;28;20370;-66
2022/11/19 07:34:33;;;;;;;;;;;;;;;;;;10584418;28;19976;-66
2022/11/19 07:39:35;;;;;;;;;;;;;;;;;;10577901;28;19923;-66
2022/11/19 07:44:37;;;;;;;;;;;;;;;;;;10585512;28;19924;-66
2022/11/19 07:49:39;;;;;;;;;;;;;;;;;;10585316;28;19923;-66
2022/11/19 07:54:41;;;;;;;;;;;;;;;;;;10583382;28;19931;-66
2022/11/19 07:59:43;;;;;;;;;;;;;;;;;;10577916;28;19935;-65
2022/11/19 08:04:45;;;;;;;;;;;;;;;;;;10583913;28;19931;-66
2022/11/19 08:09:47;;;;;;;;;;;;;;;;;;10553326;28;19943;-66
2022/11/19 08:14:50;;;;;;;;;;;;;;;;;;10566009;28;20057;-65
2022/11/19 08:19:52;;;;;;;;;;;;;;;;;;10583324;28;19931;-66
2022/11/19 08:24:54;;;;;;;;;;;;;;;;;;10583926;28;19935;-66
2022/11/19 08:29:56;;;;;;;;;;;;;;;;;;10583135;28;19923;-66
2022/11/19 08:34:58;;;;;;;;;;;;;;;;;;10581133;28;19928;-66
2022/11/19 08:40:00;;;;;;;;;;;;;;;;;;10563357;28;19931;-65
2022/11/19 08:45:02;;;;;;;;;;;;;;;;;;10583316;28;19931;-65
2022/11/19 08:50:04;;;;;;;;;;;;;;;;;;10582556;28;19927;-66
2022/11/19 08:55:07;;;;;;;;;;;;;;;;;;10580482;28;19923;-66
2022/11/19 09:00:09;;;;;;;;;;;;;;;;;;10581306;28;19969;-66
2022/11/19 09:05:11;;;;;;;;;;;;;;;;;;10569640;28;19924;-65
2022/11/19 09:10:15;;;;;;;;;;;;;;;;;;10581729;28;19923;-66
2022/11/19 09:15:17;;;;;;;;;;;;;;;;;;10595568;28;20324;-66
2022/11/19 09:20:19;;;;;;;;;;;;;;;;;;10594621;28;19924;-66
2022/11/19 09:25:21;;;;;;;;;;;;;;;;;;10595253;28;20354;-65
2022/11/19 09:30:24;;;;;;;;;;;;;;;;;;10593639;28;19935;-65
2022/11/19 09:35:26;;;;;;;;;;;;;;;;;;10594515;28;19923;-66
2022/11/19 09:40:28;;;;;;;;;;;;;;;;;;10577242;28;19949;-66
2022/11/19 09:45:30;;;;;;;;;;;;;;;;;;10593787;28;19924;-66
2022/11/19 09:50:32;;;;;;;;;;;;;;;;;;10593678;28;19931;-66
2022/11/19 09:55:34;;;;;;;;;;;;;;;;;;10595090;28;19928;-65
2022/11/19 10:00:36;;;;;;;;;;;;;;;;;;10590794;28;19976;-65
2022/11/19 10:05:38;;;;;;;;;;;;;;;;;;10591479;28;20423;-66
2022/11/19 10:10:40;;;;;;;;;;;;;;;;;;10594209;28;19931;-66
2022/11/19 10:15:42;;;;;;;;;;;;;;;;;;10593435;28;20331;-65
2022/11/19 10:20:44;;;;;;;;;;;;;;;;;;10592777;28;19927;-66
2022/11/19 10:25:46;;;;;;;;;;;;;;;;;;10587324;28;20375;-66
2022/11/19 10:30:49;;;;;;;;;;;;;;;;;;10586295;28;19924;-66
2022/11/19 10:35:51;;;;;;;;;;;;;;;;;;10587522;28;19954;-66
2022/11/19 10:40:53;;;;;;;;;;;;;;;;;;10585613;28;19924;-66
2022/11/19 10:45:55;;;;;;;;;;;;;;;;;;10584565;28;19924;-66
2022/11/19 10:50:57;;;;;;;;;;;;;;;;;;10586462;28;20374;-66
2022/11/19 10:55:59;;;;;;;;;;;;;;;;;;10586694;28;19972;-66
2022/11/19 11:01:01;;;;;;;;;;;;;;;;;;10584782;28;19924;-66
2022/11/19 11:06:05;;;;;;;;;;;;;;;;;;10582756;28;19975;-66
2022/11/19 11:11:07;;;;;;;;;;;;;;;;;;10583306;28;19927;-66
2022/11/19 11:16:09;;;;;;;;;;;;;;;;;;10579969;28;20378;-66
2022/11/19 11:21:11;;;;;;;;;;;;;;;;;;10579974;28;19924;-66
2022/11/19 11:26:13;;;;;;;;;;;;;;;;;;10584653;28;19953;-66
2022/11/19 11:31:15;;;;;;;;;;;;;;;;;;10583469;28;19924;-66
2022/11/19 11:36:17;;;;;;;;;;;;;;;;;;10584385;28;19932;-66
2022/11/19 11:41:20;;;;;;;;;;;;;;;;;;10580950;28;19923;-64
2022/11/19 11:46:42;;;;;;;;;;;;;;;;;;10580528;28;20453;-64
2022/11/19 11:51:44;;;;;;;;;;;;;;;;;;10582438;28;19935;-64
2022/11/19 11:56:46;;;;;;;;;;;;;;;;;;10566281;28;19928;-64
2022/11/19 12:01:48;;;;;;;;;;;;;;;;;;10581959;28;19923;-64
2022/11/19 12:06:50;;;;;;;;;;;;;;;;;;10583009;28;20497;-64
2022/11/19 12:11:56;;;;;;;;;;;;;;;;;;10583875;28;19928;-64
2022/11/19 12:16:58;;;;;;;;;;;;;;;;;;10581647;28;19924;-64
2022/11/19 12:22:01;;;;;;;;;;;;;;;;;;10583295;28;19924;-64
2022/11/19 12:27:03;;;;;;;;;;;;;;;;;;10580411;28;19927;-64
2022/11/19 12:32:06;;;;;;;;;;;;;;;;;;10582982;28;19977;-64
2022/11/19 12:37:08;;;;;;;;;;;;;;;;;;10582803;28;19931;-64
2022/11/19 12:42:10;;;;;;;;;;;;;;;;;;10579711;28;19954;-64
2022/11/19 12:47:12;;;;;;;;;;;;;;;;;;10581947;28;19924;-64
2022/11/19 12:52:14;;;;;;;;;;;;;;;;;;10582501;28;19973;-64
2022/11/19 12:57:16;;;;;;;;;;;;;;;;;;10578758;28;20298;-63
2022/11/19 13:02:18;;;;;;;;;;;;;;;;;;10581079;28;19923;-64
2022/11/19 13:07:21;;;;;;;;;;;;;;;;;;10560863;28;19931;-65
2022/11/19 13:12:24;;;;;;;;;;;;;;;;;;10554448;28;20298;-65
2022/11/19 13:17:26;;;;;;;;;;;;;;;;;;10539172;28;19923;-65
2022/11/19 13:22:28;;;;;;;;;;;;;;;;;;10547764;28;19923;-65
2022/11/19 13:27:30;;;;;;;;;;;;;;;;;;10578738;28;19923;-65
2022/11/19 13:32:32;;;;;;;;;;;;;;;;;;10581563;28;19931;-65
2022/11/19 13:37:34;;;;;;;;;;;;;;;;;;10580213;28;19928;-65
2022/11/19 13:48:17;;;;;;;;;;;;;;;;;;10581084;28;19963;-66
2022/11/19 13:53:19;;;;;;;;;;;;;;;;;;10579476;28;20390;-65
2022/11/19 13:58:21;;;;;;;;;;;;;;;;;;10582669;28;19924;-65
2022/11/19 14:03:23;;;;;;;;;;;;;;;;;;10589023;28;19924;-65
2022/11/19 14:08:26;;;;;;;;;;;;;;;;;;10587970;28;20336;-69
2022/11/19 14:13:28;;;;;;;;;;;;;;;;;;10587697;28;19969;-65
2022/11/19 14:29:16;;;;;;;;;;;;;;;;;;10588113;28;19924;-65
2022/11/19 14:34:18;;;;;;;;;;;;;;;;;;10586980;28;19931;-65
2022/11/19 14:39:20;;;;;;;;;;;;;;;;;;10569460;28;19932;-65
2022/11/19 14:44:23;;;;;;;;;;;;;;;;;;10583287;28;19931;-65
2022/11/19 14:49:25;;;;;;;;;;;;;;;;;;10586097;28;19935;-65
2022/11/19 14:54:27;;;;;;;;;;;;;;;;;;10585777;28;20019;-65
2022/11/19 14:59:33;;;;;;;;;;;;;;;;;;10587011;28;19923;-65
2022/11/19 15:04:35;;;;;;;;;;;;;;;;;;10586665;28;19934;-65
2022/11/19 15:09:37;;;;;;;;;;;;;;;;;;10585887;28;19969;-65
2022/11/19 15:15:03;;;;;;;;;;;;;;;;;;10586285;28;19923;-65
2022/11/19 15:20:01;;;;;;;;;;;;;;;;;;10591396;22;19924;-65
2022/11/19 15:25:03;;;;;;;;;;;;;;;;;;10584024;28;20313;-65
2022/11/19 15:30:05;;;;;;;;;;;;;;;;;;10585360;28;19924;-65
2022/11/19 15:35:07;;;;;;;;;;;;;;;;;;10586255;28;19931;-65
2022/11/19 15:40:12;;;;;;;;;;;;;;;;;;10586055;28;19924;-65
2022/11/19 15:45:14;;;;;;;;;;;;;;;;;;10585866;28;19924;-65
2022/11/19 15:50:16;;;;;;;;;;;;;;;;;;10585662;28;19928;-65
2022/11/19 15:55:19;;;;;;;;;;;;;;;;;;10585340;28;19931;-65
2022/11/19 16:00:21;;;;;;;;;;;;;;;;;;10584531;28;20370;-65
2022/11/19 16:05:23;;;;;;;;;;;;;;;;;;10585001;28;19924;-65
2022/11/19 16:10:25;;;;;;;;;;;;;;;;;;10584652;28;19931;-65
2022/11/19 16:20:49;;;;;;;;;;;;;;;;;;10582947;28;19924;-65
2022/11/19 16:25:51;;;;;;;;;;;;;;;;;;10583594;28;19969;-65
2022/11/19 16:30:53;;;;;;;;;;;;;;;;;;10584106;28;19931;-65
2022/11/19 16:35:55;;;;;;;;;;;;;;;;;;10583204;28;20332;-65
2022/11/19 16:46:18;;;;;;;;;;;;;;;;;;10583581;28;19924;-65
2022/11/19 16:51:20;;;;;;;;;;;;;;;;;;10582778;28;20416;-65
2022/11/19 16:56:22;;;;;;;;;;;;;;;;;;10583159;28;19928;-65
2022/11/19 17:01:24;;;;;;;;;;;;;;;;;;10583082;28;19924;-65
2022/11/19 17:06:30;;;;;;;;;;;;;;;;;;10583032;28;19977;-65
2022/11/19 17:16:53;;;;;;;;;;;;;;;;;;10581931;28;19924;-65
2022/11/19 17:21:55;;;;;;;;;;;;;;;;;;10582127;28;20370;-65
2022/11/19 17:26:57;;;;;;;;;;;;;;;;;;10582609;28;19928;-65
2022/11/19 17:31:59;;;;;;;;;;;;;;;;;;10582939;28;19981;-65
2022/11/19 17:37:01;;;;;;;;;;;;;;;;;;10590166;28;20367;-65
2022/11/19 17:47:23;;;;;;;;;;;;;;;;;;10589933;28;19928;-65
2022/11/19 17:52:26;;;;;;;;;;;;;;;;;;10589758;28;19924;-65
2022/11/19 17:57:28;;;;;;;;;;;;;;;;;;10590075;28;19973;-65
2022/11/19 18:02:30;;;;;;;;;;;;;;;;;;10589372;28;20340;-66
2022/11/19 18:07:32;;;;;;;;;;;;;;;;;;10589111;28;20383;-65
2022/11/19 18:12:34;;;;;;;;;;;;;;;;;;10588990;28;19924;-65
2022/11/19 18:17:36;;;;;;;;;;;;;;;;;;10588581;28;19981;-65
2022/11/19 18:22:38;;;;;;;;;;;;;;;;;;10588227;28;19923;-65
2022/11/19 18:27:40;;;;;;;;;;;;;;;;;;10589256;28;19924;-66
2022/11/19 18:32:42;;;;;;;;;;;;;;;;;;10588533;28;19924;-66
2022/11/19 18:37:44;;;;;;;;;;;;;;;;;;10587737;28;19988;-66
2022/11/19 18:48:07;;;;;;;;;;;;;;;;;;10587211;28;20305;-66
2022/11/19 18:53:09;;;;;;;;;;;;;;;;;;10587297;28;19924;-66
2022/11/19 18:58:13;;;;;;;;;;;;;;;;;;10587709;28;19924;-66
2022/11/19 19:03:15;;;;;;;;;;;;;;;;;;10588030;28;19924;-66
2022/11/19 19:08:18;;;;;;;;;;;;;;;;;;10587440;28;19969;-66
2022/11/19 19:13:21;;;;;;;;;;;;;;;;;;10586503;28;20304;-66
2022/11/19 19:18:23;;;;;;;;;;;;;;;;;;10568625;28;20421;-66
2022/11/19 19:23:26;;;;;;;;;;;;;;;;;;10586645;28;19924;-66
2022/11/19 19:28:28;;;;;;;;;;;;;;;;;;10586527;28;19923;-66
2022/11/19 19:33:30;;;;;;;;;;;;;;;;;;10586349;28;19948;-66
2022/11/19 19:38:32;;;;;;;;;;;;;;;;;;10585411;28;20012;-66
2022/11/19 19:43:34;;;;;;;;;;;;;;;;;;10585831;28;19924;-66
2022/11/19 19:48:36;;;;;;;;;;;;;;;;;;10585775;28;19935;-66
2022/11/19 19:53:39;;;;;;;;;;;;;;;;;;10584062;28;20279;-66
2022/11/19 19:58:44;;;;;;;;;;;;;;;;;;10585230;28;19923;-66
2022/11/19 20:03:47;;;;;;;;;;;;;;;;;;10584438;28;20379;-66
2022/11/19 20:08:54;;;;;;;;;;;;;;;;;;10584301;28;19924;-66
2022/11/19 20:13:56;;;;;;;;;;;;;;;;;;10584636;28;19924;-66
2022/11/19 20:18:58;;;;;;;;;;;;;;;;;;10583535;28;19924;-66
2022/11/19 20:24:00;;;;;;;;;;;;;;;;;;10583558;28;19924;-66
2022/11/19 20:29:03;;;;;;;;;;;;;;;;;;10583561;28;20068;-66
2022/11/19 20:34:05;;;;;;;;;;;;;;;;;;10583244;28;20375;-66
2022/11/19 20:39:07;;;;;;;;;;;;;;;;;;10584185;28;19953;-66
2022/11/19 20:44:18;;;;;;;;;;;;;;;;;;10583480;28;19949;-66
2022/11/19 20:49:20;;;;;;;;;;;;;;;;;;10583395;28;19924;-66
2022/11/19 20:54:23;;;;;;;;;;;;;;;;;;10582678;28;19924;-66
2022/11/19 20:59:25;;;;;;;;;;;;;;;;;;10583489;28;20040;-66
2022/11/19 21:04:27;;;;;;;;;;;;;;;;;;10583094;28;19970;-66
2022/11/19 21:09:30;;;;;;;;;;;;;;;;;;10581810;28;19924;-67
2022/11/19 21:14:32;;;;;;;;;;;;;;;;;;10582788;28;19931;-66
2022/11/19 21:19:34;;;;;;;;;;;;;;;;;;10582272;28;20396;-66
2022/11/19 21:24:36;;;;;;;;;;;;;;;;;;10582619;28;19924;-66
2022/11/19 21:29:38;;;;;;;;;;;;;;;;;;10582432;28;20420;-66
2022/11/19 21:34:40;;;;;;;;;;;;;;;;;;10582437;28;19924;-66
2022/11/19 21:39:42;;;;;;;;;;;;;;;;;;10581535;28;20378;-66
2022/11/19 21:44:44;;;;;;;;;;;;;;;;;;10582245;28;19973;-66
2022/11/19 21:49:47;;;;;;;;;;;;;;;;;;10581472;28;19951;-66
2022/11/19 21:54:49;;;;;;;;;;;;;;;;;;10581937;28;19930;-66
2022/11/19 21:59:51;;;;;;;;;;;;;;;;;;10581111;28;19923;-66
2022/11/19 22:04:53;;;;;;;;;;;;;;;;;;10581151;28;20382;-66
2022/11/19 22:09:55;;;;;;;;;;;;;;;;;;10582232;28;19924;-66
2022/11/19 22:14:57;;;;;;;;;;;;;;;;;;10580925;28;20333;-66
2022/11/19 22:19:59;;;;;;;;;;;;;;;;;;10584382;28;19946;-65
2022/11/19 22:25:01;;;;;;;;;;;;;;;;;;10589142;28;19973;-66
2022/11/19 22:30:03;;;;;;;;;;;;;;;;;;10588921;28;19932;-66
2022/11/19 22:35:07;;;;;;;;;;;;;;;;;;10588602;28;19980;-66
2022/11/19 22:40:09;;;;;;;;;;;;;;;;;;10588578;28;19928;-66
2022/11/19 22:45:11;;;;;;;;;;;;;;;;;;10588328;28;19924;-66
2022/11/19 22:50:13;;;;;;;;;;;;;;;;;;10588039;28;19927;-66
2022/11/19 22:55:15;;;;;;;;;;;;;;;;;;10587849;28;19924;-66
2022/11/19 23:00:17;;;;;;;;;;;;;;;;;;10588324;28;19927;-66
2022/11/19 23:05:19;;;;;;;;;;;;;;;;;;10588039;28;19923;-66
2022/11/19 23:10:21;;;;;;;;;;;;;;;;;;10579395;28;19931;-66
2022/11/19 23:15:23;;;;;;;;;;;;;;;;;;10543593;28;19924;-66
2022/11/19 23:20:25;;;;;;;;;;;;;;;;;;10544396;28;19924;-66
2022/11/19 23:25:27;;;;;;;;;;;;;;;;;;10543822;28;20374;-66
2022/11/19 23:30:29;;;;;;;;;;;;;;;;;;10543641;28;19970;-66
2022/11/19 23:35:32;;;;;;;;;;;;;;;;;;10543971;28;19945;-66
2022/11/19 23:40:34;;;;;;;;;;;;;;;;;;10543189;28;20371;-66
2022/11/19 23:45:36;;;;;;;;;;;;;;;;;;10544161;28;19924;-66
2022/11/19 23:50:38;;;;;;;;;;;;;;;;;;10525482;28;19977;-66
2022/11/19 23:55:40;;;;;;;;;;;;;;;;;;10542513;28;20325;-66
